sensor_id;sensor_type;location;lat;lon;timestamp;pressure;altitude;pressure_sealevel;temperature;humidity
78892;BME280;68368;51.728;5.248;2023-05-10T00:00:26;100857.13;;;12.47;89.43
78892;BME280;68368;51.728;5.248;2023-05-10T00:02:30;100854.52;;;12.44;89.54
78892;BME280;68368;51.728;5.248;2023-05-10T00:04:33;100853.66;;;12.42;89.44
78892;BME280;68368;51.728;5.248;2023-05-10T00:06:36;100852.95;;;12.41;89.58
78892;BME280;68368;51.728;5.248;2023-05-10T00:08:39;100853.19;;;12.38;89.31
78892;BME280;68368;51.728;5.248;2023-05-10T00:10:43;100848.60;;;12.36;89.31
78892;BME280;68368;51.728;5.248;2023-05-10T00:12:48;100846.48;;;12.34;89.27
78892;BME280;68368;51.728;5.248;2023-05-10T00:14:54;100845.29;;;12.32;89.44
78892;BME280;68368;51.728;5.248;2023-05-10T00:16:58;100847.30;;;12.29;89.64
78892;BME280;68368;51.728;5.248;2023-05-10T00:19:01;100848.41;;;12.26;89.16
78892;BME280;68368;51.728;5.248;2023-05-10T00:21:06;100842.64;;;12.21;89.33
78892;BME280;68368;51.728;5.248;2023-05-10T00:23:10;100846.10;;;12.15;89.28
78892;BME280;68368;51.728;5.248;2023-05-10T00:25:14;100847.05;;;12.11;89.21
78892;BME280;68368;51.728;5.248;2023-05-10T00:27:17;100846.98;;;12.05;89.33
78892;BME280;68368;51.728;5.248;2023-05-10T00:29:22;100853.28;;;12.00;89.44
78892;BME280;68368;51.728;5.248;2023-05-10T00:31:25;100857.11;;;11.95;89.45
78892;BME280;68368;51.728;5.248;2023-05-10T00:33:29;100852.91;;;11.89;89.44
78892;BME280;68368;51.728;5.248;2023-05-10T00:35:32;100851.36;;;11.84;89.67
78892;BME280;68368;51.728;5.248;2023-05-10T00:37:35;100853.73;;;11.81;89.54
78892;BME280;68368;51.728;5.248;2023-05-10T00:39:38;100855.73;;;11.77;89.85
78892;BME280;68368;51.728;5.248;2023-05-10T00:41:42;100854.71;;;11.75;89.78
78892;BME280;68368;51.728;5.248;2023-05-10T00:43:46;100857.94;;;11.73;89.78
78892;BME280;68368;51.728;5.248;2023-05-10T00:45:49;100855.80;;;11.71;89.85
78892;BME280;68368;51.728;5.248;2023-05-10T00:47:53;100859.75;;;11.70;90.09
78892;BME280;68368;51.728;5.248;2023-05-10T00:49:56;100858.16;;;11.69;90.02
78892;BME280;68368;51.728;5.248;2023-05-10T00:52:01;100856.73;;;11.69;90.26
78892;BME280;68368;51.728;5.248;2023-05-10T00:54:04;100854.77;;;11.70;90.41
78892;BME280;68368;51.728;5.248;2023-05-10T00:56:12;100853.34;;;11.70;90.39
78892;BME280;68368;51.728;5.248;2023-05-10T00:58:16;100853.33;;;11.72;90.25
78892;BME280;68368;51.728;5.248;2023-05-10T01:00:20;100856.16;;;11.73;90.22
78892;BME280;68368;51.728;5.248;2023-05-10T01:02:23;100857.18;;;11.75;90.31
78892;BME280;68368;51.728;5.248;2023-05-10T01:04:27;100856.12;;;11.75;90.51
78892;BME280;68368;51.728;5.248;2023-05-10T01:06:30;100853.42;;;11.77;90.34
78892;BME280;68368;51.728;5.248;2023-05-10T01:08:34;100854.13;;;11.78;90.33
78892;BME280;68368;51.728;5.248;2023-05-10T01:10:37;100853.92;;;11.79;90.36
78892;BME280;68368;51.728;5.248;2023-05-10T01:12:43;100851.41;;;11.82;90.35
78892;BME280;68368;51.728;5.248;2023-05-10T01:14:49;100844.64;;;11.82;90.09
78892;BME280;68368;51.728;5.248;2023-05-10T01:16:53;100841.41;;;11.83;89.91
78892;BME280;68368;51.728;5.248;2023-05-10T01:18:57;100840.70;;;11.85;90.06
78892;BME280;68368;51.728;5.248;2023-05-10T01:21:09;100842.12;;;11.85;89.90
78892;BME280;68368;51.728;5.248;2023-05-10T01:23:39;100843.01;;;11.86;90.15
78892;BME280;68368;51.728;5.248;2023-05-10T01:26:05;100844.78;;;11.86;89.91
78892;BME280;68368;51.728;5.248;2023-05-10T01:28:44;100846.33;;;11.90;89.85
78892;BME280;68368;51.728;5.248;2023-05-10T01:31:12;100849.30;;;11.92;89.80
78892;BME280;68368;51.728;5.248;2023-05-10T01:33:32;100850.02;;;11.93;89.64
78892;BME280;68368;51.728;5.248;2023-05-10T01:35:42;100850.70;;;11.94;89.73
78892;BME280;68368;51.728;5.248;2023-05-10T01:37:52;100854.05;;;11.97;89.60
78892;BME280;68368;51.728;5.248;2023-05-10T01:40:06;100848.86;;;11.98;89.81
78892;BME280;68368;51.728;5.248;2023-05-10T01:42:14;100851.48;;;12.02;89.77
78892;BME280;68368;51.728;5.248;2023-05-10T01:44:36;100858.92;;;12.04;89.78
78892;BME280;68368;51.728;5.248;2023-05-10T01:46:41;100864.77;;;12.05;89.74
78892;BME280;68368;51.728;5.248;2023-05-10T01:48:51;100864.94;;;12.07;89.44
78892;BME280;68368;51.728;5.248;2023-05-10T01:50:56;100864.53;;;12.09;89.56
78892;BME280;68368;51.728;5.248;2023-05-10T01:53:00;100864.15;;;12.11;89.88
78892;BME280;68368;51.728;5.248;2023-05-10T01:55:07;100867.67;;;12.13;89.64
78892;BME280;68368;51.728;5.248;2023-05-10T01:57:15;100871.40;;;12.13;89.51
78892;BME280;68368;51.728;5.248;2023-05-10T01:59:20;100862.69;;;12.12;89.58
78892;BME280;68368;51.728;5.248;2023-05-10T02:01:25;100866.23;;;12.13;89.54
78892;BME280;68368;51.728;5.248;2023-05-10T02:03:30;100864.45;;;12.14;89.56
78892;BME280;68368;51.728;5.248;2023-05-10T02:05:38;100861.07;;;12.14;89.44
78892;BME280;68368;51.728;5.248;2023-05-10T02:07:42;100863.37;;;12.15;89.55
78892;BME280;68368;51.728;5.248;2023-05-10T02:09:47;100863.37;;;12.15;89.34
78892;BME280;68368;51.728;5.248;2023-05-10T02:11:51;100862.30;;;12.16;89.24
78892;BME280;68368;51.728;5.248;2023-05-10T02:13:57;100863.01;;;12.15;89.29
78892;BME280;68368;51.728;5.248;2023-05-10T02:16:03;100863.94;;;12.12;89.13
78892;BME280;68368;51.728;5.248;2023-05-10T02:18:09;100865.04;;;12.11;89.29
78892;BME280;68368;51.728;5.248;2023-05-10T02:20:16;100864.34;;;12.10;89.15
78892;BME280;68368;51.728;5.248;2023-05-10T02:22:22;100867.05;;;12.08;89.04
78892;BME280;68368;51.728;5.248;2023-05-10T02:24:27;100872.26;;;12.05;89.27
78892;BME280;68368;51.728;5.248;2023-05-10T02:26:32;100876.70;;;12.05;89.19
78892;BME280;68368;51.728;5.248;2023-05-10T02:28:37;100878.14;;;12.03;89.09
78892;BME280;68368;51.728;5.248;2023-05-10T02:30:42;100877.11;;;12.01;89.23
78892;BME280;68368;51.728;5.248;2023-05-10T02:32:47;100875.69;;;12.00;89.14
78892;BME280;68368;51.728;5.248;2023-05-10T02:34:52;100876.75;;;12.02;89.34
78892;BME280;68368;51.728;5.248;2023-05-10T02:36:57;100878.52;;;12.03;89.28
78892;BME280;68368;51.728;5.248;2023-05-10T02:39:03;100872.97;;;12.04;89.37
78892;BME280;68368;51.728;5.248;2023-05-10T02:41:07;100873.85;;;12.05;89.38
78892;BME280;68368;51.728;5.248;2023-05-10T02:43:14;100874.89;;;12.07;89.41
78892;BME280;68368;51.728;5.248;2023-05-10T02:45:22;100877.55;;;12.07;89.09
78892;BME280;68368;51.728;5.248;2023-05-10T02:47:26;100882.20;;;12.06;89.38
78892;BME280;68368;51.728;5.248;2023-05-10T02:49:30;100880.42;;;12.06;89.43
78892;BME280;68368;51.728;5.248;2023-05-10T02:51:50;100882.36;;;12.07;89.27
78892;BME280;68368;51.728;5.248;2023-05-10T02:53:56;100877.91;;;12.07;89.39
78892;BME280;68368;51.728;5.248;2023-05-10T02:56:04;100882.35;;;12.08;89.21
78892;BME280;68368;51.728;5.248;2023-05-10T02:58:08;100884.30;;;12.07;89.21
78892;BME280;68368;51.728;5.248;2023-05-10T03:00:16;100882.16;;;12.09;89.37
78892;BME280;68368;51.728;5.248;2023-05-10T03:02:21;100887.85;;;12.09;89.27
78892;BME280;68368;51.728;5.248;2023-05-10T03:04:25;100886.58;;;12.10;89.54
78892;BME280;68368;51.728;5.248;2023-05-10T03:06:28;100884.61;;;12.11;89.64
78892;BME280;68368;51.728;5.248;2023-05-10T03:08:32;100887.24;;;12.12;89.41
78892;BME280;68368;51.728;5.248;2023-05-10T03:10:40;100887.78;;;12.12;89.63
78892;BME280;68368;51.728;5.248;2023-05-10T03:12:56;100889.91;;;12.13;89.51
78892;BME280;68368;51.728;5.248;2023-05-10T03:15:11;100889.04;;;12.12;89.61
78892;BME280;68368;51.728;5.248;2023-05-10T03:17:22;100892.40;;;12.13;89.78
78892;BME280;68368;51.728;5.248;2023-05-10T03:19:32;100887.60;;;12.12;89.70
78892;BME280;68368;51.728;5.248;2023-05-10T03:21:43;100890.27;;;12.13;89.76
78892;BME280;68368;51.728;5.248;2023-05-10T03:23:56;100891.14;;;12.14;89.62
78892;BME280;68368;51.728;5.248;2023-05-10T03:26:01;100889.02;;;12.14;89.62
78892;BME280;68368;51.728;5.248;2023-05-10T03:28:06;100889.55;;;12.13;89.50
78892;BME280;68368;51.728;5.248;2023-05-10T03:30:12;100892.77;;;12.13;89.94
78892;BME280;68368;51.728;5.248;2023-05-10T03:32:15;100889.38;;;12.13;89.76
78892;BME280;68368;51.728;5.248;2023-05-10T03:34:24;100893.29;;;12.14;89.83
78892;BME280;68368;51.728;5.248;2023-05-10T03:36:27;100894.35;;;12.13;90.01
78892;BME280;68368;51.728;5.248;2023-05-10T03:38:31;100896.48;;;12.14;89.97
78892;BME280;68368;51.728;5.248;2023-05-10T03:40:34;100896.28;;;12.15;90.10
78892;BME280;68368;51.728;5.248;2023-05-10T03:42:39;100899.84;;;12.16;90.02
78892;BME280;68368;51.728;5.248;2023-05-10T03:44:45;100907.10;;;12.18;90.25
78892;BME280;68368;51.728;5.248;2023-05-10T03:46:48;100903.70;;;12.19;90.38
78892;BME280;68368;51.728;5.248;2023-05-10T03:48:51;100906.70;;;12.21;90.05
78892;BME280;68368;51.728;5.248;2023-05-10T03:50:55;100906.31;;;12.23;90.38
78892;BME280;68368;51.728;5.248;2023-05-10T03:52:58;100910.53;;;12.26;90.25
78892;BME280;68368;51.728;5.248;2023-05-10T03:55:02;100908.02;;;12.28;90.07
78892;BME280;68368;51.728;5.248;2023-05-10T03:57:06;100909.05;;;12.29;90.18
78892;BME280;68368;51.728;5.248;2023-05-10T03:59:09;100909.58;;;12.31;90.11
78892;BME280;68368;51.728;5.248;2023-05-10T04:01:13;100912.03;;;12.32;90.09
78892;BME280;68368;51.728;5.248;2023-05-10T04:03:16;100913.65;;;12.32;90.08
78892;BME280;68368;51.728;5.248;2023-05-10T04:05:19;100911.70;;;12.31;90.03
78892;BME280;68368;51.728;5.248;2023-05-10T04:07:23;100912.23;;;12.31;90.04
78892;BME280;68368;51.728;5.248;2023-05-10T04:09:26;100914.55;;;12.31;90.05
78892;BME280;68368;51.728;5.248;2023-05-10T04:11:31;100913.64;;;12.32;90.09
78892;BME280;68368;51.728;5.248;2023-05-10T04:13:35;100916.85;;;12.32;89.97
78892;BME280;68368;51.728;5.248;2023-05-10T04:15:38;100919.14;;;12.32;89.95
78892;BME280;68368;51.728;5.248;2023-05-10T04:17:41;100922.16;;;12.33;90.01
78892;BME280;68368;51.728;5.248;2023-05-10T04:19:44;100922.69;;;12.34;89.90
78892;BME280;68368;51.728;5.248;2023-05-10T04:21:47;100921.43;;;12.34;89.64
78892;BME280;68368;51.728;5.248;2023-05-10T04:23:50;100921.82;;;12.32;89.71
78892;BME280;68368;51.728;5.248;2023-05-10T04:25:54;100923.13;;;12.29;89.52
78892;BME280;68368;51.728;5.248;2023-05-10T04:28:02;100922.98;;;12.25;89.68
78892;BME280;68368;51.728;5.248;2023-05-10T04:30:09;100926.98;;;12.21;89.71
78892;BME280;68368;51.728;5.248;2023-05-10T04:32:13;100928.08;;;12.19;89.65
78892;BME280;68368;51.728;5.248;2023-05-10T04:34:19;100927.94;;;12.17;89.64
78892;BME280;68368;51.728;5.248;2023-05-10T04:36:23;100928.86;;;12.15;89.61
78892;BME280;68368;51.728;5.248;2023-05-10T04:38:27;100930.48;;;12.13;89.73
78892;BME280;68368;51.728;5.248;2023-05-10T04:40:30;100932.63;;;12.12;89.51
78892;BME280;68368;51.728;5.248;2023-05-10T04:42:33;100928.56;;;12.11;89.70
78892;BME280;68368;51.728;5.248;2023-05-10T04:44:38;100933.20;;;12.11;89.53
78892;BME280;68368;51.728;5.248;2023-05-10T04:46:41;100933.91;;;12.10;89.61
78892;BME280;68368;51.728;5.248;2023-05-10T04:48:45;100933.56;;;12.10;89.57
78892;BME280;68368;51.728;5.248;2023-05-10T04:50:48;100939.42;;;12.10;89.65
78892;BME280;68368;51.728;5.248;2023-05-10T04:52:51;100938.18;;;12.11;89.55
78892;BME280;68368;51.728;5.248;2023-05-10T04:54:55;100935.52;;;12.11;89.58
78892;BME280;68368;51.728;5.248;2023-05-10T04:56:58;100937.10;;;12.11;89.58
78892;BME280;68368;51.728;5.248;2023-05-10T04:59:02;100936.41;;;12.11;89.67
78892;BME280;68368;51.728;5.248;2023-05-10T05:01:17;100937.62;;;12.12;89.62
78892;BME280;68368;51.728;5.248;2023-05-10T05:03:20;100933.86;;;12.13;89.72
78892;BME280;68368;51.728;5.248;2023-05-10T05:05:24;100938.27;;;12.15;89.67
78892;BME280;68368;51.728;5.248;2023-05-10T05:07:30;100937.54;;;12.17;89.78
78892;BME280;68368;51.728;5.248;2023-05-10T05:09:33;100941.62;;;12.19;89.37
78892;BME280;68368;51.728;5.248;2023-05-10T05:11:36;100933.91;;;12.20;89.73
78892;BME280;68368;51.728;5.248;2023-05-10T05:13:40;100941.14;;;12.25;89.29
78892;BME280;68368;51.728;5.248;2023-05-10T05:15:44;100944.48;;;12.29;89.16
78892;BME280;68368;51.728;5.248;2023-05-10T05:17:47;100943.36;;;12.32;89.17
78892;BME280;68368;51.728;5.248;2023-05-10T05:19:51;100948.44;;;12.38;88.94
78892;BME280;68368;51.728;5.248;2023-05-10T05:21:56;100945.33;;;12.43;89.03
78892;BME280;68368;51.728;5.248;2023-05-10T05:24:01;100946.52;;;12.47;89.09
78892;BME280;68368;51.728;5.248;2023-05-10T05:26:07;100947.17;;;12.50;88.92
78892;BME280;68368;51.728;5.248;2023-05-10T05:28:10;100948.02;;;12.53;88.75
78892;BME280;68368;51.728;5.248;2023-05-10T05:30:14;100951.70;;;12.56;88.48
78892;BME280;68368;51.728;5.248;2023-05-10T05:32:18;100947.40;;;12.58;88.31
78892;BME280;68368;51.728;5.248;2023-05-10T05:34:21;100950.92;;;12.60;88.64
78892;BME280;68368;51.728;5.248;2023-05-10T05:36:25;100948.02;;;12.64;88.61
78892;BME280;68368;51.728;5.248;2023-05-10T05:38:28;100950.58;;;12.70;88.53
78892;BME280;68368;51.728;5.248;2023-05-10T05:40:32;100947.58;;;12.79;88.23
78892;BME280;68368;51.728;5.248;2023-05-10T05:42:35;100952.09;;;12.86;88.07
78892;BME280;68368;51.728;5.248;2023-05-10T05:44:38;100954.96;;;12.95;88.01
78892;BME280;68368;51.728;5.248;2023-05-10T05:46:41;100958.08;;;13.00;87.92
78892;BME280;68368;51.728;5.248;2023-05-10T05:48:45;100961.89;;;13.06;87.59
78892;BME280;68368;51.728;5.248;2023-05-10T05:50:50;100963.94;;;13.11;87.44
78892;BME280;68368;51.728;5.248;2023-05-10T05:52:57;100960.61;;;13.16;87.21
78892;BME280;68368;51.728;5.248;2023-05-10T05:55:00;100963.59;;;13.20;87.22
78892;BME280;68368;51.728;5.248;2023-05-10T05:57:03;100969.10;;;13.21;86.83
78892;BME280;68368;51.728;5.248;2023-05-10T05:59:06;100970.29;;;13.24;86.89
78892;BME280;68368;51.728;5.248;2023-05-10T06:01:10;100974.36;;;13.26;86.75
78892;BME280;68368;51.728;5.248;2023-05-10T06:03:13;100976.02;;;13.23;86.37
78892;BME280;68368;51.728;5.248;2023-05-10T06:05:17;100974.48;;;13.18;86.68
78892;BME280;68368;51.728;5.248;2023-05-10T06:07:21;100973.61;;;13.18;86.94
78892;BME280;68368;51.728;5.248;2023-05-10T06:09:24;100978.08;;;13.17;86.65
78892;BME280;68368;51.728;5.248;2023-05-10T06:11:28;100979.02;;;13.15;86.56
78892;BME280;68368;51.728;5.248;2023-05-10T06:13:31;100980.48;;;13.13;86.81
78892;BME280;68368;51.728;5.248;2023-05-10T06:15:37;100975.68;;;13.11;86.52
78892;BME280;68368;51.728;5.248;2023-05-10T06:17:40;100979.07;;;13.11;86.68
78892;BME280;68368;51.728;5.248;2023-05-10T06:19:46;100981.04;;;13.11;86.60
78892;BME280;68368;51.728;5.248;2023-05-10T06:21:49;100979.38;;;13.14;86.60
78892;BME280;68368;51.728;5.248;2023-05-10T06:23:52;100982.48;;;13.20;86.76
78892;BME280;68368;51.728;5.248;2023-05-10T06:25:55;100986.16;;;13.23;86.55
78892;BME280;68368;51.728;5.248;2023-05-10T06:27:59;100988.33;;;13.22;86.48
78892;BME280;68368;51.728;5.248;2023-05-10T06:30:03;100988.89;;;13.20;86.40
78892;BME280;68368;51.728;5.248;2023-05-10T06:32:07;100995.23;;;13.14;86.38
78892;BME280;68368;51.728;5.248;2023-05-10T06:34:10;100998.52;;;13.10;86.25
78892;BME280;68368;51.728;5.248;2023-05-10T06:36:13;101002.84;;;13.09;86.46
78892;BME280;68368;51.728;5.248;2023-05-10T06:38:16;101002.33;;;13.06;86.25
78892;BME280;68368;51.728;5.248;2023-05-10T06:40:23;101004.20;;;13.02;86.10
78892;BME280;68368;51.728;5.248;2023-05-10T06:42:26;101006.79;;;12.97;86.20
78892;BME280;68368;51.728;5.248;2023-05-10T06:44:29;101007.90;;;12.94;86.54
78892;BME280;68368;51.728;5.248;2023-05-10T06:46:32;101008.23;;;12.95;86.34
78892;BME280;68368;51.728;5.248;2023-05-10T06:48:36;101010.67;;;12.98;86.68
78892;BME280;68368;51.728;5.248;2023-05-10T06:50:39;101013.85;;;13.00;86.70
78892;BME280;68368;51.728;5.248;2023-05-10T06:52:43;101017.23;;;13.00;86.82
78892;BME280;68368;51.728;5.248;2023-05-10T06:54:46;101013.48;;;13.01;86.79
78892;BME280;68368;51.728;5.248;2023-05-10T06:56:49;101020.35;;;13.05;86.96
78892;BME280;68368;51.728;5.248;2023-05-10T06:58:52;101019.58;;;13.09;86.75
78892;BME280;68368;51.728;5.248;2023-05-10T07:01:03;101016.59;;;13.16;86.87
78892;BME280;68368;51.728;5.248;2023-05-10T07:03:07;101014.92;;;13.20;86.51
78892;BME280;68368;51.728;5.248;2023-05-10T07:05:11;101019.95;;;13.18;86.63
78892;BME280;68368;51.728;5.248;2023-05-10T07:07:14;101021.94;;;13.16;86.88
78892;BME280;68368;51.728;5.248;2023-05-10T07:09:18;101024.30;;;13.14;86.63
78892;BME280;68368;51.728;5.248;2023-05-10T07:11:21;101028.98;;;13.11;86.65
78892;BME280;68368;51.728;5.248;2023-05-10T07:13:27;101034.56;;;13.08;86.70
78892;BME280;68368;51.728;5.248;2023-05-10T07:15:31;101032.97;;;13.07;87.04
78892;BME280;68368;51.728;5.248;2023-05-10T07:17:34;101034.05;;;13.07;86.87
78892;BME280;68368;51.728;5.248;2023-05-10T07:19:37;101034.88;;;13.10;86.70
78892;BME280;68368;51.728;5.248;2023-05-10T07:21:40;101037.81;;;13.16;86.67
78892;BME280;68368;51.728;5.248;2023-05-10T07:23:43;101039.25;;;13.26;86.53
78892;BME280;68368;51.728;5.248;2023-05-10T07:25:48;101038.57;;;13.35;86.11
78892;BME280;68368;51.728;5.248;2023-05-10T07:27:52;101040.37;;;13.44;86.16
78892;BME280;68368;51.728;5.248;2023-05-10T07:29:55;101040.11;;;13.57;85.80
78892;BME280;68368;51.728;5.248;2023-05-10T07:31:59;101038.90;;;13.74;85.60
78892;BME280;68368;51.728;5.248;2023-05-10T07:34:02;101040.13;;;13.92;85.32
78892;BME280;68368;51.728;5.248;2023-05-10T07:36:06;101040.00;;;14.24;84.81
78892;BME280;68368;51.728;5.248;2023-05-10T07:38:11;101050.31;;;14.66;83.50
78892;BME280;68368;51.728;5.248;2023-05-10T07:40:17;101047.21;;;14.84;83.29
78892;BME280;68368;51.728;5.248;2023-05-10T07:42:19;101049.38;;;14.90;83.06
78892;BME280;68368;51.728;5.248;2023-05-10T07:44:27;101052.81;;;14.89;83.06
78892;BME280;68368;51.728;5.248;2023-05-10T07:46:30;101047.18;;;14.78;83.08
78892;BME280;68368;51.728;5.248;2023-05-10T07:48:36;101053.31;;;14.68;82.58
78892;BME280;68368;51.728;5.248;2023-05-10T07:50:39;101055.11;;;14.67;82.86
78892;BME280;68368;51.728;5.248;2023-05-10T07:52:43;101057.90;;;14.70;82.92
78892;BME280;68368;51.728;5.248;2023-05-10T07:54:46;101054.48;;;14.71;82.41
78892;BME280;68368;51.728;5.248;2023-05-10T07:56:50;101054.02;;;14.69;82.16
78892;BME280;68368;51.728;5.248;2023-05-10T07:58:54;101053.64;;;14.62;81.89
78892;BME280;68368;51.728;5.248;2023-05-10T08:00:58;101050.98;;;14.53;82.07
78892;BME280;68368;51.728;5.248;2023-05-10T08:03:02;101053.77;;;14.47;81.96
78892;BME280;68368;51.728;5.248;2023-05-10T08:05:07;101058.29;;;14.44;82.22
78892;BME280;68368;51.728;5.248;2023-05-10T08:07:13;101062.11;;;14.41;82.00
78892;BME280;68368;51.728;5.248;2023-05-10T08:09:17;101066.13;;;14.37;81.38
78892;BME280;68368;51.728;5.248;2023-05-10T08:11:20;101069.46;;;14.40;81.75
78892;BME280;68368;51.728;5.248;2023-05-10T08:13:23;101073.22;;;14.48;81.82
78892;BME280;68368;51.728;5.248;2023-05-10T08:15:27;101076.43;;;14.57;81.54
78892;BME280;68368;51.728;5.248;2023-05-10T08:17:32;101077.80;;;14.67;80.95
78892;BME280;68368;51.728;5.248;2023-05-10T08:19:36;101080.48;;;14.76;80.88
78892;BME280;68368;51.728;5.248;2023-05-10T08:21:39;101084.36;;;14.85;81.22
78892;BME280;68368;51.728;5.248;2023-05-10T08:23:48;101082.98;;;14.97;81.57
78892;BME280;68368;51.728;5.248;2023-05-10T08:25:52;101086.69;;;15.14;80.78
78892;BME280;68368;51.728;5.248;2023-05-10T08:27:58;101089.66;;;15.38;79.74
78892;BME280;68368;51.728;5.248;2023-05-10T08:30:01;101090.70;;;15.60;78.46
78892;BME280;68368;51.728;5.248;2023-05-10T08:32:06;101086.53;;;15.76;78.79
78892;BME280;68368;51.728;5.248;2023-05-10T08:34:09;101091.74;;;15.88;76.52
78892;BME280;68368;51.728;5.248;2023-05-10T08:36:13;101090.63;;;16.02;75.42
78892;BME280;68368;51.728;5.248;2023-05-10T08:38:16;101091.23;;;16.25;75.66
78892;BME280;68368;51.728;5.248;2023-05-10T08:40:20;101095.15;;;16.73;76.02
78892;BME280;68368;51.728;5.248;2023-05-10T08:42:25;101096.31;;;17.04;74.66
78892;BME280;68368;51.728;5.248;2023-05-10T08:44:32;101099.13;;;17.27;75.24
78892;BME280;68368;51.728;5.248;2023-05-10T08:46:38;101093.29;;;17.51;73.56
78892;BME280;68368;51.728;5.248;2023-05-10T08:48:44;101091.64;;;17.68;72.07
78892;BME280;68368;51.728;5.248;2023-05-10T08:50:49;101092.81;;;17.65;71.53
78892;BME280;68368;51.728;5.248;2023-05-10T08:52:57;101096.06;;;17.54;71.50
78892;BME280;68368;51.728;5.248;2023-05-10T08:55:10;101098.41;;;17.54;72.47
78892;BME280;68368;51.728;5.248;2023-05-10T08:57:14;101098.45;;;17.58;69.28
78892;BME280;68368;51.728;5.248;2023-05-10T08:59:18;101100.95;;;17.58;69.89
78892;BME280;68368;51.728;5.248;2023-05-10T09:01:22;101104.92;;;17.63;70.46
78892;BME280;68368;51.728;5.248;2023-05-10T09:03:25;101107.48;;;17.67;69.36
78892;BME280;68368;51.728;5.248;2023-05-10T09:05:28;101107.28;;;17.62;69.71
78892;BME280;68368;51.728;5.248;2023-05-10T09:07:33;101107.17;;;17.60;69.89
78892;BME280;68368;51.728;5.248;2023-05-10T09:09:36;101107.65;;;17.46;68.57
78892;BME280;68368;51.728;5.248;2023-05-10T09:11:40;101113.40;;;17.40;68.41
78892;BME280;68368;51.728;5.248;2023-05-10T09:13:44;101112.61;;;17.48;68.20
78892;BME280;68368;51.728;5.248;2023-05-10T09:15:48;101113.75;;;17.72;68.64
78892;BME280;68368;51.728;5.248;2023-05-10T09:17:52;101116.00;;;18.00;66.51
78892;BME280;68368;51.728;5.248;2023-05-10T09:20:00;101114.23;;;18.29;66.04
78892;BME280;68368;51.728;5.248;2023-05-10T09:22:03;101120.36;;;18.52;64.03
78892;BME280;68368;51.728;5.248;2023-05-10T09:24:07;101120.70;;;18.61;64.53
78892;BME280;68368;51.728;5.248;2023-05-10T09:26:11;101122.77;;;18.59;64.77
78892;BME280;68368;51.728;5.248;2023-05-10T09:28:15;101122.65;;;18.39;64.41
78892;BME280;68368;51.728;5.248;2023-05-10T09:30:23;101125.40;;;18.04;63.36
78892;BME280;68368;51.728;5.248;2023-05-10T09:32:41;101131.50;;;17.68;64.93
78892;BME280;68368;51.728;5.248;2023-05-10T09:34:47;101132.20;;;17.47;65.57
78892;BME280;68368;51.728;5.248;2023-05-10T09:36:57;101136.36;;;17.36;66.42
78892;BME280;68368;51.728;5.248;2023-05-10T09:39:01;101140.91;;;17.39;66.71
78892;BME280;68368;51.728;5.248;2023-05-10T09:41:14;101138.95;;;17.50;67.12
78892;BME280;68368;51.728;5.248;2023-05-10T09:43:18;101139.99;;;17.77;67.15
78892;BME280;68368;51.728;5.248;2023-05-10T09:45:22;101138.73;;;17.98;65.78
78892;BME280;68368;51.728;5.248;2023-05-10T09:47:26;101136.30;;;18.00;65.00
78892;BME280;68368;51.728;5.248;2023-05-10T09:49:30;101140.65;;;17.94;65.92
78892;BME280;68368;51.728;5.248;2023-05-10T09:51:34;101141.75;;;17.94;65.98
78892;BME280;68368;51.728;5.248;2023-05-10T09:53:37;101144.06;;;17.89;65.54
78892;BME280;68368;51.728;5.248;2023-05-10T09:55:42;101146.98;;;17.88;65.93
78892;BME280;68368;51.728;5.248;2023-05-10T09:57:46;101149.33;;;17.88;64.79
78892;BME280;68368;51.728;5.248;2023-05-10T09:59:50;101152.55;;;17.83;64.46
78892;BME280;68368;51.728;5.248;2023-05-10T10:01:53;101152.36;;;17.77;64.58
78892;BME280;68368;51.728;5.248;2023-05-10T10:04:01;101151.51;;;17.66;64.61
78892;BME280;68368;51.728;5.248;2023-05-10T10:06:08;101155.91;;;17.52;65.34
78892;BME280;68368;51.728;5.248;2023-05-10T10:08:12;101159.59;;;17.38;65.72
78892;BME280;68368;51.728;5.248;2023-05-10T10:10:20;101158.14;;;17.22;65.61
78892;BME280;68368;51.728;5.248;2023-05-10T10:12:23;101157.46;;;16.98;66.37
78892;BME280;68368;51.728;5.248;2023-05-10T10:14:26;101160.91;;;16.74;67.28
78892;BME280;68368;51.728;5.248;2023-05-10T10:16:30;101160.29;;;16.52;68.58
78892;BME280;68368;51.728;5.248;2023-05-10T10:18:34;101164.33;;;16.37;69.74
78892;BME280;68368;51.728;5.248;2023-05-10T10:20:39;101170.38;;;16.19;70.30
78892;BME280;68368;51.728;5.248;2023-05-10T10:22:43;101172.77;;;16.04;71.57
78892;BME280;68368;51.728;5.248;2023-05-10T10:24:47;101177.23;;;15.98;72.60
78892;BME280;68368;51.728;5.248;2023-05-10T10:26:53;101179.42;;;15.90;72.71
78892;BME280;68368;51.728;5.248;2023-05-10T10:29:08;101181.25;;;15.82;73.42
78892;BME280;68368;51.728;5.248;2023-05-10T10:31:23;101178.29;;;15.78;73.92
78892;BME280;68368;51.728;5.248;2023-05-10T10:33:50;101181.57;;;15.83;74.47
78892;BME280;68368;51.728;5.248;2023-05-10T10:35:55;101179.30;;;15.94;74.35
78892;BME280;68368;51.728;5.248;2023-05-10T10:38:01;101176.69;;;15.98;73.82
78892;BME280;68368;51.728;5.248;2023-05-10T10:40:24;101176.61;;;16.01;74.38
78892;BME280;68368;51.728;5.248;2023-05-10T10:42:46;101175.88;;;16.01;74.12
78892;BME280;68368;51.728;5.248;2023-05-10T10:44:50;101173.36;;;16.02;74.16
78892;BME280;68368;51.728;5.248;2023-05-10T10:47:24;101172.56;;;16.05;74.31
78892;BME280;68368;51.728;5.248;2023-05-10T10:49:27;101172.44;;;16.10;73.90
78892;BME280;68368;51.728;5.248;2023-05-10T10:51:31;101168.69;;;16.09;73.30
78892;BME280;68368;51.728;5.248;2023-05-10T10:53:34;101169.05;;;16.03;72.87
78892;BME280;68368;51.728;5.248;2023-05-10T10:55:47;101168.62;;;15.92;73.34